Time;durP1;ratioP1;P1;durP2;ratioP2;P2;SDS_P1;SDS_P2;PMS_P1;PMS_P2;Temp;Humidity;BMP_temperature;BMP_pressure;BME280_temperature;BME280_humidity;BME280_pressure;Samples;Min_cycle;Max_cycle;Signal;HPM_P1;HPM_P2
2023/10/26 00:02:03;;;;;;;21.08;16.55;;;;;;;9.35;100.00;99639.59;6245806;23;20008;-80
2023/10/26 00:04:28;;;;;;;23.13;16.35;;;;;;;9.04;100.00;99597.28;6245511;23;20008;-80
2023/10/26 00:06:54;;;;;;;20.65;16.30;;;;;;;9.26;100.00;99642.88;6245643;23;20362;-81
2023/10/26 00:09:19;;;;;;;20.38;14.90;;;;;;;9.22;100.00;99644.00;6245560;23;20004;-83
2023/10/26 00:11:44;;;;;;;18.35;14.43;;;;;;;9.03;100.00;99625.75;6245300;23;20004;-84
2023/10/26 00:14:10;;;;;;;20.25;15.30;;;;;;;9.13;100.00;99658.41;6245182;23;20054;-81
2023/10/26 00:16:35;;;;;;;19.13;16.02;;;;;;;9.11;100.00;99655.13;6245453;23;20035;-82
2023/10/26 00:19:02;;;;;;;19.42;14.25;;;;;;;9.11;100.00;99662.03;6245392;23;20004;-86
2023/10/26 00:21:27;;;;;;;19.73;15.23;;;;;;;9.10;100.00;99681.00;6245530;23;20004;-86
2023/10/26 00:23:53;;;;;;;20.10;14.32;;;;;;;9.13;100.00;99670.47;6245479;23;20008;-85
2023/10/26 00:26:18;;;;;;;18.83;14.23;;;;;;;9.09;100.00;99671.66;6244910;23;20004;-81
2023/10/26 00:28:43;;;;;;;19.58;14.27;;;;;;;9.10;100.00;99668.94;6245210;22;20012;-86
2023/10/26 00:31:08;;;;;;;20.38;14.45;;;;;;;9.17;100.00;99684.78;6245140;23;20009;-86
2023/10/26 00:33:34;;;;;;;17.98;14.10;;;;;;;9.17;100.00;99682.19;6244972;23;20032;-86
2023/10/26 00:35:59;;;;;;;19.20;15.43;;;;;;;8.96;100.00;99648.56;6245386;23;20028;-86
2023/10/26 00:38:24;;;;;;;19.77;15.40;;;;;;;9.13;100.00;99675.63;6245313;23;20023;-86
2023/10/26 00:40:50;;;;;;;19.40;14.65;;;;;;;9.12;100.00;99682.53;6244969;23;20004;-85
2023/10/26 00:43:22;;;;;;;22.23;15.18;;;;;;;8.98;100.00;99661.34;6245125;23;20011;-85
2023/10/26 00:45:51;;;;;;;21.02;16.77;;;;;;;9.11;100.00;99685.22;6245557;23;20024;-85
2023/10/26 00:48:17;;;;;;;21.02;15.23;;;;;;;9.13;100.00;99688.50;6245292;23;20012;-85
2023/10/26 00:50:42;;;;;;;23.48;16.75;;;;;;;9.01;100.00;99672.22;6244900;23;20322;-86
2023/10/26 00:53:09;;;;;;;20.50;15.65;;;;;;;9.09;100.00;99692.25;6192923;23;20030;-86
2023/10/26 00:55:35;;;;;;;21.13;15.90;;;;;;;9.09;100.00;99690.50;6245144;23;20000;-86
2023/10/26 00:58:01;;;;;;;19.95;15.95;;;;;;;8.96;100.00;99671.75;6245216;23;20004;-86
2023/10/26 01:00:27;;;;;;;21.08;16.23;;;;;;;8.99;100.00;99683.56;6243212;23;20414;-87
2023/10/26 01:02:53;;;;;;;20.77;15.20;;;;;;;9.06;100.00;99695.88;6245176;23;20004;-86
2023/10/26 01:05:19;;;;;;;20.08;16.42;;;;;;;9.05;100.00;99696.00;6245249;23;20004;-86
2023/10/26 01:07:44;;;;;;;22.67;16.05;;;;;;;9.01;100.00;99695.38;6247300;23;20022;-85
2023/10/26 01:10:11;;;;;;;19.95;16.10;;;;;;;9.02;100.00;99703.94;6246871;23;20004;-85
2023/10/26 01:12:36;;;;;;;21.35;16.98;;;;;;;9.01;100.00;99705.69;6247173;23;20030;-86
2023/10/26 01:15:02;;;;;;;20.27;16.27;;;;;;;9.03;100.00;99708.16;6247395;23;20032;-85
2023/10/26 01:17:28;;;;;;;22.25;16.65;;;;;;;8.92;100.00;99693.50;6247593;23;20042;-84
2023/10/26 01:19:53;;;;;;;21.98;16.15;;;;;;;8.99;100.00;99719.63;6219911;23;20367;-86
2023/10/26 01:22:18;;;;;;;22.52;17.67;;;;;;;9.00;100.00;99716.09;6246875;23;20082;-86
2023/10/26 01:24:44;;;;;;;23.83;17.70;;;;;;;8.76;100.00;99682.72;6247375;23;20008;-86
2023/10/26 01:27:09;;;;;;;24.42;17.45;;;;;;;8.96;100.00;99714.69;6247125;23;20330;-85
2023/10/26 01:29:35;;;;;;;22.80;16.65;;;;;;;8.91;100.00;99713.28;6246815;23;20015;-82
2023/10/26 01:32:01;;;;;;;25.05;17.58;;;;;;;8.61;100.00;99676.91;6246974;23;20012;-79
2023/10/26 01:34:26;;;;;;;24.15;16.50;;;;;;;8.70;100.00;99712.28;6246755;23;20032;-83
2023/10/26 01:36:52;;;;;;;20.48;15.55;;;;;;;8.44;100.00;99696.13;6246744;23;20004;-83
2023/10/26 01:39:18;;;;;;;24.13;17.40;;;;;;;8.37;100.00;99699.28;6246835;23;20004;-86
2023/10/26 01:41:44;;;;;;;22.42;15.80;;;;;;;8.34;100.00;99715.72;6247279;23;20010;-80
2023/10/26 01:44:09;;;;;;;24.45;16.83;;;;;;;8.26;100.00;99705.16;6246824;23;20398;-83
2023/10/26 01:46:35;;;;;;;24.13;16.00;;;;;;;7.88;100.00;99653.88;6246807;23;20000;-79
2023/10/26 01:49:01;;;;;;;24.48;17.85;;;;;;;8.05;100.00;99699.78;6246770;23;20389;-84
2023/10/26 01:51:27;;;;;;;23.20;16.27;;;;;;;7.97;100.00;99700.34;6219481;23;20012;-81
2023/10/26 01:53:52;;;;;;;23.05;16.33;;;;;;;7.91;100.00;99699.94;6246827;23;20303;-80
2023/10/26 01:56:18;;;;;;;22.75;15.15;;;;;;;7.82;100.00;99701.38;6247171;23;20004;-82
2023/10/26 01:58:43;;;;;;;22.73;15.35;;;;;;;7.68;100.00;99694.66;6246898;23;20004;-84
2023/10/26 02:01:09;;;;;;;22.42;16.30;;;;;;;7.56;100.00;99685.19;6246641;23;20362;-83
2023/10/26 02:03:34;;;;;;;23.35;17.10;;;;;;;7.56;100.00;99695.47;6246927;23;20000;-80
2023/10/26 02:06:02;;;;;;;25.60;17.48;;;;;;;7.41;100.00;99681.94;6246155;23;20031;-83
2023/10/26 02:08:28;;;;;;;26.77;17.65;;;;;;;7.63;100.00;99714.69;6246628;23;20488;-80
2023/10/26 02:10:53;;;;;;;23.35;16.45;;;;;;;7.58;100.00;99709.06;6246118;23;20000;-81
2023/10/26 02:13:19;;;;;;;21.23;15.07;;;;;;;7.56;100.00;99710.06;6246507;23;20004;-82
2023/10/26 02:15:44;;;;;;;23.77;16.70;;;;;;;7.51;100.00;99709.56;6246514;23;20130;-82
2023/10/26 02:18:09;;;;;;;23.83;17.02;;;;;;;7.52;100.00;99704.31;6245797;23;20322;-80
2023/10/26 02:20:34;;;;;;;22.45;15.35;;;;;;;7.48;100.00;99705.47;6246215;23;20079;-82
2023/10/26 02:23:00;;;;;;;25.83;16.88;;;;;;;7.44;100.00;99701.44;6246779;23;20423;-79
2023/10/26 02:25:26;;;;;;;23.80;16.98;;;;;;;7.43;100.00;99708.34;6218906;23;20453;-82
2023/10/26 02:27:51;;;;;;;24.27;16.67;;;;;;;7.28;100.00;99683.69;6246463;23;20042;-83
2023/10/26 02:30:17;;;;;;;26.73;18.13;;;;;;;7.37;100.00;99698.47;6246726;23;20422;-85
2023/10/26 02:32:42;;;;;;;22.27;16.60;;;;;;;7.01;100.00;99652.19;6246104;23;20019;-85
2023/10/26 02:35:08;;;;;;;24.05;17.73;;;;;;;7.31;100.00;99705.78;6218684;23;20011;-83
2023/10/26 02:37:38;;;;;;;22.73;15.63;;;;;;;7.27;100.00;99705.16;6244555;23;20004;-85
2023/10/26 02:40:05;;;;;;;23.42;15.02;;;;;;;7.24;100.00;99702.78;6246356;23;20023;-83
2023/10/26 02:42:31;;;;;;;23.98;15.65;;;;;;;7.22;100.00;99703.81;6246772;23;20050;-83
2023/10/26 02:44:57;;;;;;;22.77;15.23;;;;;;;7.11;100.00;99682.25;6246720;23;20004;-85
2023/10/26 02:47:23;;;;;;;25.65;15.20;;;;;;;7.18;100.00;99701.47;6246365;23;20323;-79
2023/10/26 02:49:49;;;;;;;21.95;15.68;;;;;;;6.99;100.00;99666.88;6218853;23;20027;-80
2023/10/26 02:52:14;;;;;;;24.70;16.33;;;;;;;7.14;100.00;99697.44;6245807;23;20418;-82
2023/10/26 02:54:39;;;;;;;21.92;15.75;;;;;;;7.06;100.00;99683.47;6219532;23;20015;-82
2023/10/26 02:57:05;;;;;;;20.45;15.38;;;;;;;7.09;100.00;99694.38;6246318;23;20031;-82
2023/10/26 02:59:30;;;;;;;23.80;15.35;;;;;;;6.94;100.00;99679.16;6246313;23;20004;-79
2023/10/26 03:01:56;;;;;;;27.40;15.48;;;;;;;7.08;100.00;99699.59;6245630;23;20004;-83
2023/10/26 03:04:21;;;;;;;24.27;14.88;;;;;;;6.49;100.00;99620.53;6243285;23;20079;-82
2023/10/26 03:06:46;;;;;;;24.75;14.95;;;;;;;6.86;100.00;99698.44;6245829;23;20004;-83
2023/10/26 03:09:13;;;;;;;21.73;14.38;;;;;;;6.73;100.00;99671.97;6245927;23;20054;-82
2023/10/26 03:11:38;;;;;;;40.47;13.68;;;;;;;6.93;100.00;99701.44;6245890;23;20062;-84
2023/10/26 03:14:04;;;;;;;17.73;13.38;;;;;;;6.89;100.00;99697.44;6245835;23;20004;-79
2023/10/26 03:16:29;;;;;;;18.88;12.85;;;;;;;6.56;100.00;99642.25;6243174;23;20004;-79
2023/10/26 03:18:54;;;;;;;21.52;14.27;;;;;;;6.81;100.00;99690.25;6245799;23;20007;-83
2023/10/26 03:21:20;;;;;;;19.25;13.75;;;;;;;6.75;100.00;99695.75;6245656;23;20006;-84
2023/10/26 03:23:52;;;;;;;18.35;13.70;;;;;;;6.64;100.00;99690.50;6243622;23;20008;-83
2023/10/26 03:26:20;;;;;;;22.90;14.90;;;;;;;6.61;100.00;99696.66;6246095;23;20007;-79
2023/10/26 03:28:49;;;;;;;18.98;13.93;;;;;;;6.55;100.00;99699.63;6245608;23;20089;-84
2023/10/26 03:31:14;;;;;;;22.15;14.75;;;;;;;6.52;100.00;99699.81;6245874;23;20004;-84
2023/10/26 03:33:39;;;;;;;21.60;14.70;;;;;;;6.41;100.00;99683.50;6245635;23;20051;-82
2023/10/26 03:36:15;;;;;;;21.27;14.50;;;;;;;6.44;100.00;99698.66;6245616;23;20008;-83
2023/10/26 03:38:41;;;;;;;22.95;15.50;;;;;;;6.31;100.00;99685.81;6246074;23;20087;-85
2023/10/26 03:41:07;;;;;;;21.98;14.25;;;;;;;6.41;100.00;99696.31;6245500;23;20035;-84
2023/10/26 03:43:32;;;;;;;24.10;15.90;;;;;;;6.06;100.00;99645.53;6245521;23;20079;-84
2023/10/26 03:45:58;;;;;;;25.10;17.13;;;;;;;6.37;100.00;99694.84;6245481;23;20087;-82
2023/10/26 03:48:23;;;;;;;36.03;17.70;;;;;;;6.31;100.00;99694.31;6245778;23;20500;-85
2023/10/26 03:50:48;;;;;;;23.98;15.82;;;;;;;6.30;100.00;99694.44;6245748;23;20081;-84
2023/10/26 03:53:14;;;;;;;28.55;16.30;;;;;;;6.30;100.00;99689.31;6245496;23;20054;-84
2023/10/26 03:55:39;;;;;;;29.98;16.40;;;;;;;6.07;100.00;99659.16;6245376;23;20441;-83
2023/10/26 03:58:04;;;;;;;23.75;15.82;;;;;;;6.24;100.00;99685.38;6245203;23;20441;-84
2023/10/26 04:00:30;;;;;;;23.60;15.98;;;;;;;6.10;100.00;99669.22;6218638;23;20100;-86
2023/10/26 04:02:55;;;;;;;25.08;16.95;;;;;;;6.10;100.00;99653.84;6245427;23;20423;-83
2023/10/26 04:05:20;;;;;;;24.40;15.77;;;;;;;6.23;100.00;99668.34;6245297;23;20004;-81
2023/10/26 04:07:46;;;;;;;25.83;15.93;;;;;;;6.33;100.00;99673.72;6245100;23;19997;-81
2023/10/26 04:10:11;;;;;;;29.33;15.98;;;;;;;6.15;100.00;99641.56;6245338;23;20000;-84
2023/10/26 04:12:37;;;;;;;27.35;16.60;;;;;;;6.28;100.00;99652.66;6245225;23;20004;-82
2023/10/26 04:15:03;;;;;;;24.23;15.43;;;;;;;6.24;100.00;99643.53;6245546;23;20300;-84
2023/10/26 04:17:28;;;;;;;24.85;15.98;;;;;;;6.43;100.00;99671.38;6245510;23;19996;-85
2023/10/26 04:19:53;;;;;;;35.15;19.13;;;;;;;6.55;100.00;99668.84;6245378;23;20065;-84
2023/10/26 04:22:19;;;;;;;40.03;17.45;;;;;;;6.59;100.00;99669.47;6245055;23;20330;-84
2023/10/26 04:24:44;;;;;;;67.95;19.70;;;;;;;6.66;100.00;99664.75;6245462;23;20008;-83
2023/10/26 04:27:09;;;;;;;58.42;20.77;;;;;;;6.68;100.00;99650.09;6245803;23;20000;-83
2023/10/26 04:29:35;;;;;;;75.43;20.30;;;;;;;6.75;100.00;99662.41;6245386;23;20431;-82
2023/10/26 04:32:03;;;;;;;61.72;21.30;;;;;;;5.65;100.00;99484.16;6233516;22;20032;-81
2023/10/26 04:34:36;;;;;;;96.65;22.90;;;;;;;6.39;100.00;99611.78;6245019;23;20027;-82
2023/10/26 04:37:13;;;;;;;101.18;21.83;;;;;;;6.39;100.00;99596.41;6245503;23;20000;-82
2023/10/26 04:39:41;;;;;;;111.40;20.08;;;;;;;6.36;100.00;99596.59;6244930;23;20000;-83
2023/10/26 04:42:07;;;;;;;67.53;18.73;;;;;;;6.85;100.00;99671.16;6248663;23;20333;-84
2023/10/26 04:44:32;;;;;;;66.45;17.02;;;;;;;6.88;100.00;99664.97;6248528;23;20038;-81
2023/10/26 04:46:58;;;;;;;57.58;16.63;;;;;;;6.68;100.00;99639.81;6248719;23;20001;-84
2023/10/26 04:49:23;;;;;;;68.43;17.30;;;;;;;6.84;100.00;99666.94;6248569;23;20007;-78
2023/10/26 04:51:48;;;;;;;45.70;15.45;;;;;;;6.50;100.00;99619.59;6248297;23;20051;-80
2023/10/26 04:54:14;;;;;;;53.58;15.43;;;;;;;6.84;100.00;99661.00;6220475;23;20008;-84
2023/10/26 04:56:39;;;;;;;41.25;15.25;;;;;;;6.84;100.00;99664.38;6248053;23;20004;-85
2023/10/26 04:59:04;;;;;;;48.97;15.30;;;;;;;6.82;100.00;99657.72;6248252;23;20046;-82
2023/10/26 05:01:30;;;;;;;38.03;15.32;;;;;;;6.79;100.00;99663.06;6248617;23;20386;-80
2023/10/26 05:03:55;;;;;;;32.95;14.50;;;;;;;6.75;100.00;99661.59;6248338;23;20092;-84
2023/10/26 05:06:21;;;;;;;35.75;13.82;;;;;;;6.50;100.00;99617.03;6248228;23;20004;-83
2023/10/26 05:08:46;;;;;;;45.78;14.40;;;;;;;6.69;100.00;99654.31;6245347;23;20004;-82
2023/10/26 05:11:12;;;;;;;40.70;15.20;;;;;;;6.67;100.00;99663.84;6248170;23;20050;-81
2023/10/26 05:13:38;;;;;;;44.88;14.48;;;;;;;6.59;100.00;99662.59;6248278;23;20004;-78
2023/10/26 05:16:04;;;;;;;36.50;13.73;;;;;;;6.63;100.00;99670.91;6220105;23;20015;-80
2023/10/26 05:18:29;;;;;;;33.47;13.82;;;;;;;6.61;100.00;99662.50;6248148;23;20000;-85
2023/10/26 05:20:55;;;;;;;42.03;12.68;;;;;;;6.55;100.00;99663.72;6248012;23;20023;-81
2023/10/26 05:23:20;;;;;;;47.25;13.52;;;;;;;6.58;100.00;99662.69;6248038;23;20038;-83
2023/10/26 05:25:47;;;;;;;53.85;14.05;;;;;;;6.43;100.00;99648.31;6248302;23;20095;-83
2023/10/26 05:28:13;;;;;;;60.45;13.38;;;;;;;6.49;100.00;99648.75;6248381;23;20000;-81
2023/10/26 05:30:38;;;;;;;41.92;13.43;;;;;;;6.59;100.00;99660.03;6248205;23;20318;-82
2023/10/26 05:33:03;;;;;;;31.25;13.85;;;;;;;6.59;100.00;99670.31;6248073;23;20101;-82
2023/10/26 05:35:29;;;;;;;44.20;14.75;;;;;;;6.60;100.00;99661.69;6248285;23;20000;-79
2023/10/26 05:37:54;;;;;;;42.83;13.55;;;;;;;6.60;100.00;99663.44;6248094;23;20015;-78
2023/10/26 05:40:19;;;;;;;74.80;16.20;;;;;;;6.59;100.00;99662.59;6247782;23;20004;-77
2023/10/26 05:42:45;;;;;;;43.28;13.65;;;;;;;6.59;100.00;99666.91;6248348;23;20075;-83
2023/10/26 05:45:10;;;;;;;42.60;13.80;;;;;;;6.43;100.00;99636.31;6248021;23;20020;-77
2023/10/26 05:47:36;;;;;;;44.08;13.82;;;;;;;6.57;100.00;99661.88;6247856;23;20008;-77
2023/10/26 05:50:01;;;;;;;36.72;13.32;;;;;;;6.60;100.00;99655.75;6246491;23;20003;-82
2023/10/26 05:52:26;;;;;;;61.15;13.60;;;;;;;6.36;100.00;99622.22;6246656;23;20402;-82
2023/10/26 05:54:53;;;;;;;38.03;13.73;;;;;;;6.35;100.00;99617.19;6246337;23;20098;-79
2023/10/26 05:57:18;;;;;;;46.13;13.77;;;;;;;6.63;100.00;99660.66;6246331;23;20004;-78
2023/10/26 05:59:44;;;;;;;54.22;15.77;;;;;;;6.28;100.00;99591.13;6246648;23;20050;-77
2023/10/26 06:02:09;;;;;;;68.22;16.05;;;;;;;6.45;100.00;99628.50;6246206;23;20004;-77
2023/10/26 06:04:35;;;;;;;58.15;15.00;;;;;;;6.50;100.00;99621.34;6246206;23;20083;-77
2023/10/26 06:07:01;;;;;;;58.63;14.10;;;;;;;6.65;100.00;99634.91;6246405;23;20000;-80
2023/10/26 06:09:27;;;;;;;66.10;14.32;;;;;;;5.95;100.00;99520.66;6246214;23;20499;-82
2023/10/26 06:11:52;;;;;;;67.13;15.02;;;;;;;6.73;100.00;99637.78;6246121;23;20083;-84
2023/10/26 06:14:17;;;;;;;53.65;13.98;;;;;;;6.74;100.00;99636.84;6246362;23;20000;-84
2023/10/26 06:16:43;;;;;;;91.20;16.73;;;;;;;6.73;100.00;99638.59;6246261;23;20003;-78
2023/10/26 06:19:08;;;;;;;76.25;15.18;;;;;;;6.76;100.00;99642.72;6246083;23;20007;-83
2023/10/26 06:21:34;;;;;;;61.47;14.63;;;;;;;6.80;100.00;99646.72;6246371;23;20079;-78
2023/10/26 06:23:59;;;;;;;74.47;15.05;;;;;;;6.66;100.00;99633.97;6245877;23;20015;-82
2023/10/26 06:26:24;;;;;;;63.70;16.05;;;;;;;6.76;100.00;99638.41;6244415;23;20008;-84
2023/10/26 06:28:50;;;;;;;91.05;16.65;;;;;;;6.73;100.00;99632.66;6246390;23;20004;-81
2023/10/26 06:31:15;;;;;;;74.35;14.15;;;;;;;6.56;100.00;99614.06;6248434;23;20008;-82
2023/10/26 06:33:41;;;;;;;68.25;16.27;;;;;;;6.73;100.00;99645.47;6246023;23;20012;-79
2023/10/26 06:36:08;;;;;;;51.28;13.85;;;;;;;6.76;100.00;99643.53;6245981;23;20011;-77
2023/10/26 06:38:34;;;;;;;65.38;15.98;;;;;;;6.65;100.00;99634.91;6219371;23;20000;-80
2023/10/26 06:41:00;;;;;;;61.88;15.23;;;;;;;6.62;100.00;99623.09;6245611;23;20008;-78
2023/10/26 06:43:26;;;;;;;68.50;15.10;;;;;;;6.76;100.00;99640.97;6246312;23;20008;-79
2023/10/26 06:45:52;;;;;;;51.22;14.07;;;;;;;6.83;100.00;99651.66;6243407;23;20055;-80
2023/10/26 06:48:20;;;;;;;79.50;16.75;;;;;;;6.82;100.00;99647.44;6245815;23;20342;-82
2023/10/26 06:50:46;;;;;;;50.67;15.73;;;;;;;6.65;100.00;99614.38;6244244;23;20004;-74
2023/10/26 06:53:12;;;;;;;41.95;15.02;;;;;;;6.86;100.00;99652.25;6246829;23;20074;-79
2023/10/26 06:55:38;;;;;;;64.35;16.70;;;;;;;6.81;100.00;99648.38;6245581;23;20004;-77
2023/10/26 06:58:04;;;;;;;42.30;15.15;;;;;;;6.86;100.00;99634.28;6246018;23;20415;-80
2023/10/26 07:00:30;;;;;;;45.97;16.67;;;;;;;6.83;100.00;99621.69;6246021;23;20011;-81
2023/10/26 07:02:56;;;;;;;59.10;17.40;;;;;;;6.92;100.00;99624.56;6218577;23;20000;-79
2023/10/26 07:05:21;;;;;;;51.55;16.88;;;;;;;6.92;100.00;99633.06;6218655;23;20000;-79
2023/10/26 07:07:49;;;;;;;57.08;16.90;;;;;;;7.09;100.00;99655.88;6218976;23;20004;-79
2023/10/26 07:10:15;;;;;;;43.75;15.52;;;;;;;7.13;100.00;99651.34;6245472;23;20008;-78
2023/10/26 07:12:42;;;;;;;42.00;15.55;;;;;;;7.11;100.00;99646.31;6245890;23;20483;-76
2023/10/26 07:15:08;;;;;;;55.78;16.35;;;;;;;7.11;100.00;99645.50;6245643;23;20079;-77
2023/10/26 07:17:34;;;;;;;46.97;15.98;;;;;;;6.95;100.00;99624.34;6246298;23;20075;-76
2023/10/26 07:20:02;;;;;;;51.63;15.52;;;;;;;7.12;100.00;99655.66;6245521;23;20024;-77
2023/10/26 07:22:27;;;;;;;42.90;15.73;;;;;;;7.21;100.00;99643.94;6245789;23;20012;-78
2023/10/26 07:24:52;;;;;;;42.72;14.57;;;;;;;7.24;100.00;99636.03;6245520;23;20091;-78
2023/10/26 07:27:18;;;;;;;54.58;15.63;;;;;;;7.15;100.00;99613.53;6245386;23;20004;-77
2023/10/26 07:29:44;;;;;;;48.00;14.98;;;;;;;7.26;100.00;99626.47;6245558;23;20007;-81
2023/10/26 07:32:09;;;;;;;53.83;15.43;;;;;;;7.40;100.00;99640.94;6245158;23;20004;-79
2023/10/26 07:34:34;;;;;;;44.08;14.52;;;;;;;7.48;100.00;99630.97;6245631;23;20012;-77
2023/10/26 07:37:00;;;;;;;46.35;13.57;;;;;;;7.27;100.00;99593.91;6245244;23;20011;-76
2023/10/26 07:39:25;;;;;;;86.78;15.18;;;;;;;7.47;100.00;99612.19;6245419;23;20010;-80
2023/10/26 07:41:50;;;;;;;62.33;14.43;;;;;;;7.56;100.00;99625.28;6245097;23;20004;-79
2023/10/26 07:44:16;;;;;;;63.70;15.45;;;;;;;7.59;100.00;99623.34;6245348;23;20008;-78
2023/10/26 07:46:41;;;;;;;51.05;15.02;;;;;;;7.43;100.00;99597.06;6245227;23;20083;-78
2023/10/26 07:49:08;;;;;;;46.28;15.43;;;;;;;7.65;100.00;99630.59;6245368;23;20000;-77
2023/10/26 07:51:33;;;;;;;39.13;14.25;;;;;;;7.52;100.00;99606.69;6245440;23;20004;-78
2023/10/26 07:53:58;;;;;;;46.58;13.30;;;;;;;7.72;100.00;99642.09;6245554;23;20011;-77
2023/10/26 07:56:24;;;;;;;49.42;13.35;;;;;;;7.67;100.00;99633.91;6244998;23;20000;-80
2023/10/26 07:58:49;;;;;;;53.65;14.70;;;;;;;7.69;100.00;99610.66;6245249;23;20008;-81
2023/10/26 08:01:14;;;;;;;58.17;13.50;;;;;;;8.00;100.00;99655.59;6245452;23;20078;-82
2023/10/26 08:03:40;;;;;;;83.25;15.50;;;;;;;7.94;100.00;99640.59;6245498;23;20095;-82
2023/10/26 08:06:08;;;;;;;48.25;13.38;;;;;;;8.16;100.00;99661.28;6245574;23;20381;-79
2023/10/26 08:08:33;;;;;;;40.78;13.05;;;;;;;8.26;100.00;99667.41;6244633;23;20028;-75
2023/10/26 08:11:10;;;;;;;35.92;12.82;;;;;;;8.37;100.00;99671.00;6245345;23;20008;-77
2023/10/26 08:13:35;;;;;;;38.80;12.55;;;;;;;8.27;100.00;99663.91;6245661;23;20027;-78
2023/10/26 08:16:01;;;;;;;74.60;13.65;;;;;;;8.10;100.00;99651.44;6244567;23;20062;-82
2023/10/26 08:18:26;;;;;;;53.47;12.15;;;;;;;8.09;100.00;99654.13;6245169;23;20000;-78
2023/10/26 08:20:52;;;;;;;70.88;13.50;;;;;;;8.20;100.00;99664.44;6244947;23;20099;-78
2023/10/26 08:23:17;;;;;;;88.25;15.27;;;;;;;8.26;100.00;99669.16;6245182;23;20008;-77
2023/10/26 08:25:43;;;;;;;98.00;15.35;;;;;;;8.28;100.00;99675.00;6244712;23;20032;-78
2023/10/26 08:28:08;;;;;;;76.75;14.43;;;;;;;8.38;100.00;99677.78;6245340;23;20000;-77
2023/10/26 08:30:33;;;;;;;125.57;15.55;;;;;;;8.41;100.00;99680.94;6244804;23;20068;-78
2023/10/26 08:32:59;;;;;;;82.85;14.35;;;;;;;8.33;100.00;99662.63;6244582;23;20028;-79
2023/10/26 08:35:25;;;;;;;65.32;14.20;;;;;;;8.26;100.00;99646.00;6218024;23;20008;-78
2023/10/26 08:37:51;;;;;;;98.75;15.07;;;;;;;8.52;100.00;99682.72;6244825;23;20003;-77
2023/10/26 08:40:16;;;;;;;62.50;11.93;;;;;;;8.48;100.00;99669.28;6244873;23;20008;-77
2023/10/26 08:42:44;;;;;;;38.70;11.95;;;;;;;8.59;100.00;99678.78;6244430;23;20081;-79
2023/10/26 08:45:29;;;;;;;47.97;11.52;;;;;;;8.53;100.00;99685.19;6243317;23;20050;-82
2023/10/26 08:47:56;;;;;;;36.45;11.55;;;;;;;8.40;100.00;99678.47;6245079;23;20052;-79
2023/10/26 08:50:23;;;;;;;76.70;14.00;;;;;;;8.19;100.00;99661.06;6244918;23;20032;-76
2023/10/26 08:52:49;;;;;;;52.72;12.57;;;;;;;8.39;100.00;99692.28;6244467;23;20509;-80
2023/10/26 08:55:15;;;;;;;50.35;12.70;;;;;;;8.39;100.00;99679.41;6244992;23;20075;-79
2023/10/26 08:57:49;;;;;;;61.22;14.32;;;;;;;8.40;100.00;99681.06;6245113;23;20027;-78
2023/10/26 09:00:15;;;;;;;66.57;12.65;;;;;;;8.36;100.00;99677.03;6245169;23;20000;-81
2023/10/26 09:02:41;;;;;;;65.07;15.07;;;;;;;8.23;100.00;99666.78;6245293;23;20030;-80
2023/10/26 09:05:08;;;;;;;58.58;13.30;;;;;;;8.35;100.00;99671.06;6245427;23;20004;-76
2023/10/26 09:07:34;;;;;;;43.90;13.23;;;;;;;8.44;100.00;99679.88;6244747;23;20000;-78
2023/10/26 09:10:00;;;;;;;63.65;14.52;;;;;;;8.50;100.00;99677.69;6245386;23;20000;-79
2023/10/26 09:12:25;;;;;;;49.47;13.60;;;;;;;8.60;100.00;99664.97;6245022;23;20019;-80
2023/10/26 09:14:58;;;;;;;45.83;12.70;;;;;;;8.68;100.00;99652.38;6244970;23;20079;-79
2023/10/26 09:17:28;;;;;;;41.47;13.23;;;;;;;8.89;100.00;99673.94;6245141;23;20004;-79
2023/10/26 09:19:54;;;;;;;51.38;13.68;;;;;;;9.03;100.00;99672.91;6244797;23;20299;-85
2023/10/26 09:22:37;;;;;;;51.88;13.77;;;;;;;9.16;100.00;99668.50;6244939;23;20449;-82
2023/10/26 09:25:07;;;;;;;37.53;13.25;;;;;;;9.23;100.00;99662.88;6245008;23;20046;-82
2023/10/26 09:27:37;;;;;;;43.83;14.35;;;;;;;9.06;100.00;99617.81;6246018;23;20423;-82
2023/10/26 09:30:03;;;;;;;38.40;13.40;;;;;;;9.41;100.00;99669.19;6246893;23;20000;-79
2023/10/26 09:32:36;;;;;;;46.83;13.57;;;;;;;9.51;100.00;99657.25;6217527;23;20020;-82
2023/10/26 09:35:03;;;;;;;26.75;12.00;;;;;;;9.63;100.00;99658.88;6248025;23;20327;-77
2023/10/26 09:37:29;;;;;;;38.10;14.10;;;;;;;9.69;100.00;99655.81;6246863;23;20059;-79
2023/10/26 09:39:55;;;;;;;42.80;14.02;;;;;;;9.73;100.00;99646.06;6246635;23;20410;-80
2023/10/26 09:42:21;;;;;;;35.25;14.15;;;;;;;9.88;100.00;99662.94;6246771;23;20099;-81
2023/10/26 09:44:46;;;;;;;30.67;13.05;;;;;;;9.84;100.00;99640.09;6246571;23;20442;-78
2023/10/26 09:47:12;;;;;;;27.20;15.10;;;;;;;9.94;100.00;99644.41;6220015;23;20083;-81
2023/10/26 09:49:38;;;;;;;30.25;14.25;;;;;;;10.10;100.00;99643.19;6246565;23;20000;-82
2023/10/26 09:52:04;;;;;;;26.98;15.10;;;;;;;10.29;100.00;99644.19;6246848;23;20061;-78
2023/10/26 09:54:37;;;;;;;20.38;14.07;;;;;;;10.21;100.00;99627.66;6246991;23;20026;-81
2023/10/26 09:57:07;;;;;;;25.20;14.82;;;;;;;10.29;100.00;99653.69;6246751;23;20011;-81
2023/10/26 09:59:32;;;;;;;28.48;13.82;;;;;;;10.15;100.00;99641.06;6246506;23;20054;-78
2023/10/26 10:01:58;;;;;;;22.83;13.52;;;;;;;10.15;100.00;99651.38;6246386;23;20000;-79
2023/10/26 10:04:37;;;;;;;24.08;12.25;;;;;;;10.11;100.00;99650.78;6246439;23;20015;-77
2023/10/26 10:07:03;;;;;;;25.38;13.15;;;;;;;10.01;100.00;99655.88;6246295;23;20011;-76
2023/10/26 10:09:29;;;;;;;22.40;13.75;;;;;;;9.84;100.00;99653.81;6246593;23;20004;-72
2023/10/26 10:12:27;;;;;;;29.65;13.40;;;;;;;9.82;100.00;99655.66;6246111;23;20004;-80
2023/10/26 10:14:54;;;;;;;27.85;14.45;;;;;;;9.72;100.00;99650.41;6153501;23;20013;-76
2023/10/26 10:17:22;;;;;;;25.17;13.65;;;;;;;9.73;100.00;99643.50;6153434;23;20038;-78
2023/10/26 10:20:22;;;;;;;30.55;17.83;;;;;;;9.81;100.00;99651.47;6153639;23;20088;-74
2023/10/26 10:22:49;;;;;;;26.98;14.45;;;;;;;9.72;100.00;99636.72;6153367;23;20511;-75
2023/10/26 10:25:17;;;;;;;22.42;14.00;;;;;;;9.78;100.00;99643.97;6153393;23;20447;-74
2023/10/26 10:27:48;;;;;;;22.77;13.50;;;;;;;9.78;100.00;99641.41;6153276;23;20010;-73
2023/10/26 10:30:16;;;;;;;19.38;14.02;;;;;;;9.59;100.00;99592.22;6153453;23;20174;-74
2023/10/26 10:32:47;;;;;;;20.42;12.50;;;;;;;9.92;100.00;99630.78;6153595;23;20455;-79
2023/10/26 10:35:21;;;;;;;21.40;13.15;;;;;;;10.14;100.00;99621.38;6153689;23;20005;-74
2023/10/26 10:38:11;;;;;;;20.05;13.80;;;;;;;10.26;100.00;99621.22;6153300;23;20496;-78
2023/10/26 10:40:38;;;;;;;22.88;14.32;;;;;;;9.89;100.00;99552.88;6153457;23;20066;-76
2023/10/26 10:43:04;;;;;;;24.55;16.00;;;;;;;10.25;100.00;99611.03;6153208;23;20028;-80
2023/10/26 10:45:30;;;;;;;26.52;18.75;;;;;;;10.10;100.00;99589.00;6153196;23;20005;-76
2023/10/26 10:47:55;;;;;;;26.92;18.55;;;;;;;10.26;100.00;99613.50;6153289;23;20005;-75
2023/10/26 10:50:25;;;;;;;26.95;18.65;;;;;;;10.32;100.00;99609.56;6153322;23;20010;-74
2023/10/26 10:52:55;;;;;;;31.80;19.73;;;;;;;10.30;100.00;99614.88;6218672;23;20012;-79
2023/10/26 10:55:29;;;;;;;31.55;19.50;;;;;;;10.28;100.00;99596.13;6218955;23;20000;-78
2023/10/26 10:57:55;;;;;;;31.67;20.05;;;;;;;10.32;100.00;99604.41;6245839;23;20005;-74
2023/10/26 11:00:20;;;;;;;32.50;18.50;;;;;;;10.33;100.00;99606.91;6245766;23;20394;-75
2023/10/26 11:02:49;;;;;;;30.85;18.95;;;;;;;10.39;100.00;99607.31;6245744;23;20042;-79
2023/10/26 11:05:16;;;;;;;29.50;18.02;;;;;;;10.39;100.00;99595.25;6218968;23;20004;-80
2023/10/26 11:07:42;;;;;;;25.23;18.17;;;;;;;10.36;100.00;99572.28;6246050;23;20000;-76
2023/10/26 11:10:08;;;;;;;20.08;15.13;;;;;;;10.43;100.00;99570.84;6245805;23;20422;-80
2023/10/26 11:12:34;;;;;;;20.13;14.35;;;;;;;10.55;100.00;99587.06;6218563;23;20339;-75
2023/10/26 11:15:00;;;;;;;18.25;14.45;;;;;;;10.47;100.00;99548.97;6245895;23;20008;-77